createdAt,value
2018-08-12T00:00:41.420Z,17.47
2018-08-12T00:01:47.428Z,17.35
2018-08-12T00:02:26.438Z,17.33
2018-08-12T00:03:26.396Z,17.35
2018-08-12T00:05:59.812Z,17.33
2018-08-12T00:06:59.736Z,17.33
2018-08-12T00:08:54.427Z,17.22
2018-08-12T00:09:54.391Z,17.28
2018-08-12T00:11:49.087Z,17.32
2018-08-12T00:12:49.019Z,17.35
2018-08-12T00:14:43.176Z,17.27
2018-08-12T00:15:46.170Z,17.21
2018-08-12T00:17:42.666Z,17.24
2018-08-12T00:18:37.792Z,17.24
2018-08-12T00:20:31.935Z,17.27
2018-08-12T00:21:31.947Z,17.25
2018-08-12T00:23:26.295Z,17.12
2018-08-12T00:24:27.592Z,17.00
2018-08-12T00:26:20.333Z,16.78
2018-08-12T00:27:20.244Z,16.88
2018-08-12T00:29:15.785Z,17.10
2018-08-12T00:30:16.383Z,17.22
2018-08-12T00:32:09.518Z,17.18
2018-08-12T00:33:10.303Z,17.18
2018-08-12T00:35:05.110Z,17.22
2018-08-12T00:36:04.907Z,17.10
2018-08-12T00:37:59.538Z,17.05
2018-08-12T00:38:59.901Z,17.02
2018-08-12T00:40:54.418Z,17.02
2018-08-12T00:41:54.139Z,17.02
2018-08-12T00:43:49.239Z,16.91
2018-08-12T00:44:48.785Z,16.87
2018-08-12T00:46:43.878Z,16.75
2018-08-12T00:47:44.391Z,16.72
2018-08-12T00:48:44.154Z,16.81
2018-08-12T00:49:43.725Z,16.77
2018-08-12T00:50:44.178Z,16.78
2018-08-12T00:51:43.388Z,16.73
2018-08-12T00:52:44.398Z,16.67
2018-08-12T00:53:43.723Z,16.70
2018-08-12T00:54:43.675Z,16.66
2018-08-12T00:55:43.701Z,16.73
2018-08-12T00:56:43.703Z,16.70
2018-08-12T00:57:42.653Z,16.69
2018-08-12T00:58:43.689Z,16.72
2018-08-12T00:59:43.693Z,16.77
2018-08-12T01:00:43.678Z,16.75
2018-08-12T01:01:43.879Z,16.84
2018-08-12T01:02:42.653Z,16.69
2018-08-12T01:03:43.723Z,16.72
2018-08-12T01:04:42.671Z,16.65
2018-08-12T01:05:43.771Z,16.65
2018-08-12T01:06:44.257Z,16.69
2018-08-12T01:07:42.635Z,16.69
2018-08-12T01:08:43.752Z,16.62
2018-08-12T01:09:43.766Z,16.50
2018-08-12T01:10:43.771Z,16.40
2018-08-12T01:11:43.765Z,16.32
2018-08-12T01:12:42.634Z,16.33
2018-08-12T01:13:43.343Z,16.42
2018-08-12T01:14:44.260Z,16.62
2018-08-12T01:15:43.869Z,16.47
2018-08-12T01:16:44.388Z,16.34
2018-08-12T01:17:42.693Z,16.51
2018-08-12T01:18:43.927Z,16.62
2018-08-12T01:19:43.919Z,16.59
2018-08-12T01:20:43.936Z,16.60
2018-08-12T01:21:44.180Z,16.59
2018-08-12T01:22:43.603Z,16.62
2018-08-12T01:23:43.769Z,16.63
2018-08-12T01:24:43.619Z,16.60
2018-08-12T01:25:43.330Z,16.45
2018-08-12T01:27:43.664Z,16.42
2018-08-12T01:28:43.935Z,16.45
2018-08-12T01:29:43.707Z,16.33
2018-08-12T01:30:43.616Z,16.41
2018-08-12T01:31:43.617Z,16.22
2018-08-12T01:32:43.637Z,16.26
2018-08-12T01:33:43.725Z,16.30
2018-08-12T01:34:43.645Z,16.42
2018-08-12T01:35:43.363Z,16.33
2018-08-12T01:36:43.662Z,16.34
2018-08-12T01:37:43.628Z,16.32
2018-08-12T01:38:43.696Z,16.33
2018-08-12T01:39:43.699Z,16.48
2018-08-12T01:40:43.700Z,16.37
2018-08-12T01:41:44.253Z,16.37
2018-08-12T01:42:43.613Z,16.14
2018-08-12T01:43:43.616Z,16.16
2018-08-12T01:44:44.225Z,16.18
2018-08-12T01:45:43.894Z,16.16
2018-08-12T01:46:43.278Z,16.06
2018-08-12T01:47:45.488Z,16.18
2018-08-12T01:48:43.611Z,16.25
2018-08-12T01:49:43.621Z,16.36
2018-08-12T01:50:43.628Z,16.37
2018-08-12T01:51:43.603Z,16.30
2018-08-12T01:52:43.886Z,16.29
2018-08-12T01:53:43.880Z,16.30
2018-08-12T01:54:45.975Z,16.18
2018-08-12T01:55:43.700Z,16.22
2018-08-12T01:56:43.881Z,16.08
2018-08-12T01:57:43.237Z,16.08
2018-08-12T01:58:43.936Z,16.01
2018-08-12T01:59:43.663Z,16.10
2018-08-12T02:00:43.587Z,16.11
2018-08-12T02:01:46.032Z,16.17
2018-08-12T02:02:43.880Z,16.08
2018-08-12T02:03:43.882Z,16.04
2018-08-12T02:04:46.132Z,16.14
2018-08-12T02:05:45.450Z,16.04
2018-08-12T02:06:43.557Z,15.98
2018-08-12T02:07:43.249Z,16.01
2018-08-12T02:08:43.244Z,16.01
2018-08-12T02:09:43.882Z,16.08
2018-08-12T02:10:43.489Z,16.07
2018-08-12T02:11:43.145Z,16.17
2018-08-12T02:12:43.520Z,15.98
2018-08-12T02:13:43.199Z,15.99
2018-08-12T02:14:43.517Z,16.03
2018-08-12T02:15:43.224Z,16.08
2018-08-12T02:16:43.566Z,16.07
2018-08-12T02:17:43.157Z,16.06
2018-08-12T02:18:43.550Z,16.16
2018-08-12T02:19:43.199Z,16.18
2018-08-12T02:20:43.154Z,16.25
2018-08-12T02:21:43.409Z,16.23
2018-08-12T02:22:43.530Z,16.26
2018-08-12T02:23:44.001Z,16.03
2018-08-12T02:24:43.545Z,16.07
2018-08-12T02:25:43.552Z,16.13
2018-08-12T02:26:43.547Z,16.11
2018-08-12T02:27:43.915Z,15.98
2018-08-12T02:28:43.585Z,15.77
2018-08-12T02:29:44.889Z,15.91
2018-08-12T02:30:43.112Z,15.98
2018-08-12T02:31:43.560Z,15.98
2018-08-12T02:32:43.572Z,15.91
2018-08-12T02:33:43.137Z,15.88
2018-08-12T02:34:43.496Z,15.86
2018-08-12T02:35:43.499Z,15.84
2018-08-12T02:36:43.518Z,15.99
2018-08-12T02:37:43.486Z,15.85
2018-08-12T02:38:43.184Z,16.01
2018-08-12T02:39:43.539Z,16.10
2018-08-12T02:40:43.511Z,16.10
2018-08-12T02:41:43.124Z,16.03
2018-08-12T02:42:43.083Z,16.04
2018-08-12T02:43:43.718Z,15.99
2018-08-12T02:44:43.531Z,16.08
2018-08-12T02:45:43.965Z,15.86
2018-08-12T02:46:43.532Z,15.96
2018-08-12T02:47:43.527Z,15.98
2018-08-12T02:48:43.481Z,15.88
2018-08-12T02:49:43.579Z,15.86
2018-08-12T02:50:43.581Z,15.86
2018-08-12T02:51:43.530Z,15.85
2018-08-12T02:52:43.178Z,15.67
2018-08-12T02:53:43.602Z,15.74
2018-08-12T02:54:43.532Z,15.74
2018-08-12T02:55:43.577Z,15.76
2018-08-12T02:56:43.536Z,15.71
2018-08-12T02:57:42.413Z,15.78
2018-08-12T02:58:43.568Z,15.84
2018-08-12T02:59:43.550Z,15.77
2018-08-12T03:00:43.157Z,15.68
2018-08-12T03:01:43.855Z,15.71
2018-08-12T03:02:43.910Z,15.77
2018-08-12T03:03:43.288Z,15.74
2018-08-12T03:04:43.526Z,15.86
2018-08-12T03:05:43.784Z,15.81
2018-08-12T03:07:43.530Z,15.70
2018-08-12T03:08:43.422Z,15.71
2018-08-12T03:09:43.436Z,15.46
2018-08-12T03:10:43.456Z,15.58
2018-08-12T03:11:43.816Z,15.64
2018-08-12T03:12:43.423Z,15.49
2018-08-12T03:13:43.881Z,15.37
2018-08-12T03:14:42.370Z,15.55
2018-08-12T03:15:44.011Z,15.46
2018-08-12T03:16:43.434Z,15.55
2018-08-12T03:17:43.438Z,15.58
2018-08-12T03:18:43.403Z,15.37
2018-08-12T03:19:43.427Z,15.20
2018-08-12T03:20:43.493Z,15.20
2018-08-12T03:21:43.448Z,15.30
2018-08-12T03:22:43.505Z,15.27
2018-08-12T03:23:43.734Z,15.38
2018-08-12T03:24:42.340Z,15.46
2018-08-12T03:25:43.096Z,15.41
2018-08-12T03:26:43.039Z,15.41
2018-08-12T03:27:43.403Z,15.38
2018-08-12T03:28:43.414Z,15.35
2018-08-12T03:29:43.452Z,15.51
2018-08-12T03:30:43.412Z,15.43
2018-08-12T03:31:43.373Z,15.56
2018-08-12T03:32:44.766Z,15.55
2018-08-12T03:33:43.721Z,15.55
2018-08-12T03:34:45.746Z,15.56
2018-08-12T03:35:43.380Z,15.51
2018-08-12T03:36:43.039Z,15.56
2018-08-12T03:37:43.043Z,15.46
2018-08-12T03:38:43.335Z,15.51
2018-08-12T03:39:43.323Z,15.52
2018-08-12T03:40:43.347Z,15.51
2018-08-12T03:41:43.312Z,15.56
2018-08-12T03:42:45.159Z,15.58
2018-08-12T03:43:43.744Z,15.55
2018-08-12T03:44:43.426Z,15.52
2018-08-12T03:45:43.411Z,15.52
2018-08-12T03:46:43.385Z,15.56
2018-08-12T03:47:43.272Z,15.56
2018-08-12T03:48:43.416Z,15.59
2018-08-12T03:49:43.346Z,15.41
2018-08-12T03:50:43.348Z,15.34
2018-08-12T03:51:43.769Z,15.37
2018-08-12T03:52:43.373Z,15.43
2018-08-12T03:53:43.432Z,15.44
2018-08-12T03:54:43.354Z,15.37
2018-08-12T03:55:43.410Z,15.25
2018-08-12T03:56:43.422Z,15.33
2018-08-12T03:57:45.245Z,15.56
2018-08-12T03:58:42.963Z,15.53
2018-08-12T03:59:42.945Z,15.52
2018-08-12T04:00:43.298Z,15.46
2018-08-12T04:01:43.291Z,15.55
2018-08-12T04:02:43.316Z,15.41
2018-08-12T04:03:43.741Z,15.43
2018-08-12T04:04:43.264Z,15.58
2018-08-12T04:05:43.328Z,15.56
2018-08-12T04:06:43.307Z,15.52
2018-08-12T04:07:43.278Z,15.48
2018-08-12T04:08:43.746Z,15.49
2018-08-12T04:09:42.893Z,15.41
2018-08-12T04:10:42.932Z,15.30
2018-08-12T04:11:43.257Z,15.34
2018-08-12T04:12:43.278Z,15.20
2018-08-12T04:13:43.780Z,15.22
2018-08-12T04:14:43.428Z,15.34
2018-08-12T04:15:43.230Z,15.30
2018-08-12T04:16:43.258Z,15.34
2018-08-12T04:17:43.255Z,15.34
2018-08-12T04:18:43.282Z,15.31
2018-08-12T04:19:43.761Z,15.33
2018-08-12T04:20:42.939Z,15.30
2018-08-12T04:21:43.423Z,15.34
2018-08-12T04:22:43.262Z,15.35
2018-08-12T04:23:43.281Z,15.46
2018-08-12T04:24:43.307Z,15.30
2018-08-12T04:25:43.251Z,15.48
2018-08-12T04:26:43.417Z,15.33
2018-08-12T04:27:43.361Z,15.51
2018-08-12T04:28:43.321Z,15.40
2018-08-12T04:29:43.355Z,15.53
2018-08-12T04:30:43.421Z,15.56
2018-08-12T04:31:42.854Z,15.43
2018-08-12T04:32:42.929Z,15.55
2018-08-12T04:33:43.419Z,15.56
2018-08-12T04:34:43.208Z,15.55
2018-08-12T04:35:43.249Z,15.52
2018-08-12T04:36:43.267Z,15.62
2018-08-12T04:37:43.726Z,15.55
2018-08-12T04:38:43.731Z,15.59
2018-08-12T04:39:43.218Z,15.67
2018-08-12T04:40:43.256Z,15.73
2018-08-12T04:41:43.428Z,15.68
2018-08-12T04:42:42.869Z,15.62
2018-08-12T04:43:43.753Z,15.70
2018-08-12T04:44:43.745Z,15.56
2018-08-12T04:45:43.431Z,15.53
2018-08-12T04:46:43.186Z,15.56
2018-08-12T04:47:43.200Z,15.44
2018-08-12T04:48:43.759Z,15.52
2018-08-12T04:49:45.024Z,15.53
2018-08-12T04:50:43.229Z,15.62
2018-08-12T04:51:43.256Z,15.67
2018-08-12T04:52:43.269Z,15.62
2018-08-12T04:53:42.913Z,15.59
2018-08-12T04:54:43.838Z,15.70
2018-08-12T04:55:43.424Z,15.67
2018-08-12T04:56:43.251Z,15.64
2018-08-12T04:57:43.792Z,15.59
2018-08-12T04:58:43.700Z,15.60
2018-08-12T04:59:43.479Z,15.73
2018-08-12T05:00:42.804Z,15.64
2018-08-12T05:01:43.151Z,15.64
2018-08-12T05:02:43.199Z,15.88
2018-08-12T05:03:43.757Z,15.86
2018-08-12T05:04:43.234Z,15.86
2018-08-12T05:05:44.034Z,15.81
2018-08-12T05:06:43.144Z,15.77
2018-08-12T05:07:43.149Z,15.73
2018-08-12T05:08:43.801Z,15.76
2018-08-12T05:09:43.138Z,15.86
2018-08-12T05:10:43.436Z,15.98
2018-08-12T05:11:43.510Z,15.88
2018-08-12T05:12:43.484Z,15.86
2018-08-12T05:13:43.931Z,16.03
2018-08-12T05:14:43.056Z,15.99
2018-08-12T05:15:42.732Z,15.98
2018-08-12T05:16:43.071Z,15.88
2018-08-12T05:17:43.106Z,15.74
2018-08-12T05:18:45.797Z,15.86
2018-08-12T05:19:43.074Z,16.04
2018-08-12T05:20:43.188Z,16.01
2018-08-12T05:21:43.111Z,16.04
2018-08-12T05:22:43.165Z,15.92
2018-08-12T05:23:42.054Z,15.95
2018-08-12T05:24:43.505Z,15.95
2018-08-12T05:25:43.112Z,15.95
2018-08-12T05:26:42.045Z,15.99
2018-08-12T05:27:42.783Z,16.03
2018-08-12T05:28:42.044Z,16.06
2018-08-12T05:29:43.079Z,16.26
2018-08-12T05:30:43.083Z,16.22
2018-08-12T05:31:42.938Z,16.22
2018-08-12T05:32:43.107Z,16.33
2018-08-12T05:33:42.123Z,16.42
2018-08-12T05:34:42.733Z,16.36
2018-08-12T05:35:44.966Z,16.34
2018-08-12T05:36:43.755Z,16.37
2018-08-12T05:37:42.677Z,16.37
2018-08-12T05:38:42.063Z,16.45
2018-08-12T05:39:42.052Z,16.44
2018-08-12T05:40:43.134Z,16.55
2018-08-12T05:41:43.132Z,16.33
2018-08-12T05:42:43.253Z,16.42
2018-08-12T05:43:48.577Z,16.36
2018-08-12T05:44:43.067Z,16.47
2018-08-12T05:45:43.546Z,16.57
2018-08-12T05:46:43.482Z,16.42
2018-08-12T05:47:43.095Z,16.47
2018-08-12T05:48:42.704Z,16.62
2018-08-12T05:49:43.162Z,16.66
2018-08-12T05:50:43.087Z,16.65
2018-08-12T05:51:42.013Z,16.66
2018-08-12T05:52:42.673Z,16.67
2018-08-12T05:53:43.001Z,16.65
2018-08-12T05:54:43.038Z,16.60
2018-08-12T05:55:42.663Z,16.63
2018-08-12T05:56:43.440Z,16.69
2018-08-12T05:57:43.048Z,16.67
2018-08-12T05:58:42.991Z,16.72
2018-08-12T05:59:42.711Z,16.75
2018-08-12T06:00:42.721Z,16.75
2018-08-12T06:01:43.318Z,16.75
2018-08-12T06:02:43.163Z,16.88
2018-08-12T06:03:43.322Z,16.78
2018-08-12T06:04:44.910Z,16.72
2018-08-12T06:05:43.493Z,16.75
2018-08-12T06:06:44.851Z,16.78
2018-08-12T06:07:42.976Z,16.88
2018-08-12T06:08:43.019Z,16.72
2018-08-12T06:09:43.014Z,16.72
2018-08-12T06:10:42.663Z,16.85
2018-08-12T06:11:42.641Z,16.87
2018-08-12T06:12:43.040Z,16.90
2018-08-12T06:13:42.978Z,16.90
2018-08-12T06:14:42.009Z,16.90
2018-08-12T06:15:43.534Z,16.85
2018-08-12T06:16:42.626Z,16.85
2018-08-12T06:17:42.934Z,16.92
2018-08-12T06:18:42.621Z,17.07
2018-08-12T06:19:42.947Z,17.05
2018-08-12T06:20:43.415Z,17.05
2018-08-12T06:21:41.984Z,17.06
2018-08-12T06:22:43.016Z,17.05
2018-08-12T06:23:43.043Z,17.18
2018-08-12T06:24:43.407Z,17.09
2018-08-12T06:25:43.176Z,17.14
2018-08-12T06:26:43.053Z,17.18
2018-08-12T06:27:43.068Z,17.17
2018-08-12T06:28:42.999Z,17.24
2018-08-12T06:29:43.821Z,17.21
2018-08-12T06:30:43.816Z,17.15
2018-08-12T06:31:43.455Z,17.25
2018-08-12T06:32:42.633Z,17.22
2018-08-12T06:33:43.306Z,17.25
2018-08-12T06:34:41.952Z,17.24
2018-08-12T06:35:42.979Z,17.27
2018-08-12T06:36:43.197Z,17.27
2018-08-12T06:37:42.940Z,17.25
2018-08-12T06:38:42.944Z,17.21
2018-08-12T06:39:43.805Z,17.32
2018-08-12T06:40:42.922Z,17.36
2018-08-12T06:41:42.934Z,17.40
2018-08-12T06:42:43.543Z,17.45
2018-08-12T06:43:42.591Z,17.46
2018-08-12T06:44:43.031Z,17.43
2018-08-12T06:45:42.960Z,17.45
2018-08-12T06:46:42.930Z,17.42
2018-08-12T06:47:42.933Z,17.54
2018-08-12T06:48:42.957Z,17.63
2018-08-12T06:49:42.953Z,17.54
2018-08-12T06:50:42.953Z,17.63
2018-08-12T06:51:43.021Z,17.57
2018-08-12T06:52:44.722Z,17.63
2018-08-12T06:53:43.513Z,17.58
2018-08-12T06:54:42.504Z,17.63
2018-08-12T06:55:43.582Z,17.73
2018-08-12T06:56:42.955Z,17.92
2018-08-12T06:57:42.927Z,17.89
2018-08-12T06:58:42.913Z,17.87
2018-08-12T06:59:43.227Z,17.83
2018-08-12T07:00:42.966Z,17.87
2018-08-12T07:01:43.230Z,17.89
2018-08-12T07:02:43.594Z,17.96
2018-08-12T07:03:44.874Z,18.02
2018-08-12T07:04:43.523Z,18.09
2018-08-12T07:05:42.611Z,18.11
2018-08-12T07:06:43.838Z,18.14
2018-08-12T07:07:43.548Z,18.10
2018-08-12T07:08:42.967Z,18.20
2018-08-12T07:09:43.016Z,18.17
2018-08-12T07:10:42.867Z,18.23
2018-08-12T07:11:42.935Z,18.29
2018-08-12T07:12:43.575Z,18.28
2018-08-12T07:13:42.993Z,18.28
2018-08-12T07:14:42.515Z,18.42
2018-08-12T07:15:42.976Z,18.50
2018-08-12T07:16:42.754Z,18.49
2018-08-12T07:17:43.024Z,18.53
2018-08-12T07:18:42.822Z,18.53
2018-08-12T07:19:42.834Z,18.57
2018-08-12T07:20:42.862Z,18.60
2018-08-12T07:21:43.311Z,18.57
2018-08-12T07:22:43.304Z,18.60
2018-08-12T07:23:42.818Z,18.66
2018-08-12T07:24:41.802Z,18.69
2018-08-12T07:25:42.864Z,18.76
2018-08-12T07:26:42.904Z,18.83
2018-08-12T07:27:42.492Z,18.91
2018-08-12T07:28:42.971Z,18.96
2018-08-12T07:29:42.979Z,18.86
2018-08-12T07:30:43.358Z,19.05
2018-08-12T07:31:42.939Z,19.05
2018-08-12T07:32:42.941Z,19.12
2018-08-12T07:33:43.333Z,19.09
2018-08-12T07:34:43.496Z,19.23
2018-08-12T07:35:43.148Z,19.25
2018-08-12T07:36:43.476Z,19.30
2018-08-12T07:37:45.217Z,19.35
2018-08-12T07:38:42.576Z,19.47
2018-08-12T07:39:43.292Z,19.58
2018-08-12T07:40:42.815Z,19.60
2018-08-12T07:41:42.881Z,19.64
2018-08-12T07:42:43.033Z,19.68
2018-08-12T07:43:43.345Z,19.83
2018-08-12T07:44:41.763Z,19.94
2018-08-12T07:45:42.997Z,19.90
2018-08-12T07:46:43.096Z,19.89
2018-08-12T07:47:43.323Z,19.92
2018-08-12T07:48:42.500Z,19.95
2018-08-12T07:49:42.485Z,20.04
2018-08-12T07:50:42.441Z,20.10
2018-08-12T07:51:42.988Z,20.08
2018-08-12T07:52:42.725Z,20.17
2018-08-12T07:53:43.495Z,20.23
2018-08-12T07:54:41.806Z,20.27
2018-08-12T07:55:43.755Z,20.41
2018-08-12T07:56:43.277Z,20.48
2018-08-12T07:57:43.590Z,20.48
2018-08-12T07:58:43.240Z,20.51
2018-08-12T07:59:43.362Z,20.48
2018-08-12T08:00:43.023Z,20.69
2018-08-12T08:01:42.799Z,20.60
2018-08-12T08:02:43.084Z,20.81
2018-08-12T08:03:42.835Z,20.79
2018-08-12T08:04:41.763Z,20.75
2018-08-12T08:05:42.875Z,20.69
2018-08-12T08:06:42.898Z,20.79
2018-08-12T08:07:42.994Z,20.72
2018-08-12T08:08:42.999Z,20.78
2018-08-12T08:09:41.737Z,20.98
2018-08-12T08:10:43.507Z,21.00
2018-08-12T08:11:41.755Z,21.12
2018-08-12T08:12:42.448Z,21.26
2018-08-12T08:13:42.832Z,21.31
2018-08-12T08:14:41.734Z,21.38
2018-08-12T08:15:42.862Z,21.26
2018-08-12T08:16:43.311Z,21.19
2018-08-12T08:17:43.522Z,21.34
2018-08-12T08:18:42.820Z,21.38
2018-08-12T08:19:42.086Z,21.28
2018-08-12T08:20:42.512Z,21.24
2018-08-12T08:21:42.903Z,21.19
2018-08-12T08:22:42.471Z,21.19
2018-08-12T08:23:42.486Z,21.18
2018-08-12T08:24:41.775Z,21.16
2018-08-12T08:25:41.867Z,21.19
2018-08-12T08:26:42.497Z,21.12
2018-08-12T08:27:42.854Z,21.26
2018-08-12T08:28:41.852Z,21.30
2018-08-12T08:29:41.736Z,21.38
2018-08-12T08:30:43.615Z,21.34
2018-08-12T08:31:45.573Z,21.36
2018-08-12T08:32:41.738Z,21.36
2018-08-12T08:33:42.599Z,21.48
2018-08-12T08:34:42.769Z,21.40
2018-08-12T08:35:43.540Z,21.42
2018-08-12T08:36:41.864Z,21.51
2018-08-12T08:37:43.402Z,21.59
2018-08-12T08:38:41.861Z,21.63
2018-08-12T08:39:41.748Z,21.61
2018-08-12T08:40:41.748Z,21.67
2018-08-12T08:41:41.740Z,21.68
2018-08-12T08:42:41.775Z,21.66
2018-08-12T08:43:41.875Z,21.73
2018-08-12T08:44:41.844Z,21.77
2018-08-12T08:45:41.756Z,21.71
2018-08-12T08:46:42.414Z,21.74
2018-08-12T08:47:41.770Z,21.81
2018-08-12T08:48:41.998Z,21.93
2018-08-12T08:49:41.747Z,21.90
2018-08-12T08:50:41.812Z,21.86
2018-08-12T08:51:41.850Z,21.83
2018-08-12T08:52:41.729Z,21.89
2018-08-12T08:53:41.721Z,21.90
2018-08-12T08:54:41.789Z,21.93
2018-08-12T08:55:42.629Z,22.08
2018-08-12T08:56:42.955Z,21.99
2018-08-12T08:57:41.741Z,22.04
2018-08-12T08:58:41.733Z,22.05
2018-08-12T08:59:41.751Z,22.01
2018-08-12T09:00:41.753Z,22.08
2018-08-12T09:01:41.721Z,22.20
2018-08-12T09:02:41.739Z,22.23
2018-08-12T09:03:41.730Z,22.35
2018-08-12T09:04:41.755Z,22.30
2018-08-12T09:05:41.730Z,22.26
2018-08-12T09:06:41.736Z,22.29
2018-08-12T09:07:41.732Z,22.42
2018-08-12T09:08:42.058Z,22.44
2018-08-12T09:09:41.790Z,22.42
2018-08-12T09:10:41.761Z,22.52
2018-08-12T09:11:41.894Z,22.54
2018-08-12T09:12:41.742Z,22.46
2018-08-12T09:13:41.754Z,22.59
2018-08-12T09:14:41.739Z,22.57
2018-08-12T09:15:41.743Z,22.49
2018-08-12T09:16:41.762Z,22.49
2018-08-12T09:17:43.519Z,22.61
2018-08-12T09:18:41.747Z,22.63
2018-08-12T09:19:41.739Z,22.57
2018-08-12T09:20:41.941Z,22.66
2018-08-12T09:21:41.795Z,22.78
2018-08-12T09:22:41.777Z,22.79
2018-08-12T09:23:41.797Z,22.84
2018-08-12T09:24:41.749Z,22.81
2018-08-12T09:25:41.761Z,22.84
2018-08-12T09:26:41.784Z,22.74
2018-08-12T09:27:41.784Z,22.64
2018-08-12T09:28:41.781Z,22.61
2018-08-12T09:29:41.741Z,22.94
2018-08-12T09:30:41.857Z,22.89
2018-08-12T09:33:15.179Z,23.03
2018-08-12T09:34:15.163Z,23.09
2018-08-12T09:36:09.321Z,23.14
2018-08-12T09:37:09.280Z,23.15
2018-08-12T09:39:03.957Z,23.22
2018-08-12T09:40:03.927Z,23.32
2018-08-12T09:41:58.050Z,23.16
2018-08-12T09:42:58.081Z,23.26
2018-08-12T09:44:52.292Z,23.35
2018-08-12T09:45:52.208Z,23.44
2018-08-12T09:47:46.849Z,23.32
2018-08-12T09:48:46.953Z,23.37
2018-08-12T09:50:41.577Z,23.38
2018-08-12T09:51:41.760Z,23.38
2018-08-12T09:53:35.661Z,23.38
2018-08-12T09:55:50.458Z,23.50
2018-08-12T09:56:51.300Z,23.60
2018-08-12T09:58:44.923Z,23.53
2018-08-12T09:59:44.955Z,23.56
2018-08-12T10:01:40.455Z,23.50
2018-08-12T10:02:40.317Z,23.62
2018-08-12T10:04:35.393Z,23.77
2018-08-12T10:05:34.885Z,23.59
2018-08-12T10:07:28.420Z,23.64
2018-08-12T10:08:28.354Z,23.79
2018-08-12T10:10:24.665Z,23.79
2018-08-12T10:11:23.772Z,23.67
2018-08-12T10:13:20.181Z,23.77
2018-08-12T10:14:19.387Z,23.82
2018-08-12T10:16:12.996Z,23.81
2018-08-12T10:17:13.425Z,23.96
2018-08-12T10:19:06.507Z,24.11
2018-08-12T10:20:07.909Z,24.21
2018-08-12T10:22:01.065Z,24.16
2018-08-12T10:23:01.723Z,24.09
2018-08-12T10:24:57.922Z,24.42
2018-08-12T10:25:55.679Z,24.42
2018-08-12T10:27:50.346Z,24.39
2018-08-12T10:28:50.325Z,24.21
2018-08-12T10:30:46.006Z,24.39
2018-08-12T10:31:46.232Z,24.33
2018-08-12T10:33:40.290Z,24.33
2018-08-12T10:34:40.039Z,24.26
2018-08-12T10:36:35.498Z,24.37
2018-08-12T10:37:35.008Z,24.48
2018-08-12T11:09:01.845Z,25.38
2018-08-12T11:10:02.005Z,25.51
2018-08-12T11:11:56.435Z,25.97
2018-08-12T11:12:56.930Z,26.20
2018-08-12T11:14:51.865Z,26.06
2018-08-12T11:15:51.680Z,25.93
2018-08-12T11:17:45.938Z,26.04
2018-08-12T11:18:46.469Z,26.23
2018-08-12T11:19:46.293Z,26.31
2018-08-12T11:20:46.301Z,26.35
2018-08-12T11:21:46.284Z,26.31
2018-08-12T11:22:46.341Z,26.46
2018-08-12T11:23:46.802Z,26.76
2018-08-12T11:24:46.283Z,26.87
2018-08-12T11:25:46.280Z,26.90
2018-08-12T11:26:46.301Z,26.64
2018-08-12T11:27:46.318Z,26.81
2018-08-12T11:28:46.801Z,26.84
2018-08-12T11:29:46.287Z,26.87
2018-08-12T11:30:46.444Z,26.98
2018-08-12T11:31:46.318Z,27.11
2018-08-12T11:32:46.540Z,27.05
2018-08-12T11:33:46.319Z,27.08
2018-08-12T11:34:48.180Z,27.03
2018-08-12T11:35:46.831Z,27.08
2018-08-12T11:36:46.493Z,26.88
2018-08-12T11:37:46.403Z,26.88
2018-08-12T11:38:46.344Z,27.06
2018-08-12T11:39:48.362Z,27.06
2018-08-12T11:40:46.330Z,27.12
2018-08-12T11:41:46.345Z,27.28
2018-08-12T11:42:46.575Z,27.18
2018-08-12T11:43:46.482Z,27.28
2018-08-12T11:44:46.700Z,27.42
2018-08-12T11:45:46.783Z,27.43
2018-08-12T11:46:46.781Z,27.49
2018-08-12T11:47:46.908Z,27.34
2018-08-12T11:48:46.077Z,27.25
2018-08-12T11:49:46.549Z,27.31
2018-08-12T11:50:46.489Z,27.25
2018-08-12T11:51:46.340Z,27.33
2018-08-12T11:52:46.422Z,27.40
2018-08-12T11:53:46.645Z,27.48
2018-08-12T11:54:46.838Z,27.40
2018-08-12T11:55:46.206Z,27.61
2018-08-12T11:56:46.467Z,27.76
2018-08-12T11:57:46.491Z,28.09
2018-08-12T11:58:46.674Z,28.14
2018-08-12T11:59:46.891Z,28.21
2018-08-12T12:00:46.819Z,28.17
2018-08-12T12:01:46.418Z,28.48
2018-08-12T12:02:46.351Z,28.46
2018-08-12T12:03:46.398Z,28.57
2018-08-12T12:04:46.407Z,28.38
2018-08-12T12:05:46.372Z,28.52
2018-08-12T12:06:46.428Z,28.46
2018-08-12T12:07:46.382Z,28.38
2018-08-12T12:08:47.007Z,28.20
2018-08-12T12:09:46.534Z,28.35
2018-08-12T12:10:46.538Z,28.55
2018-08-12T12:11:46.021Z,28.74
2018-08-12T12:12:46.460Z,28.60
2018-08-12T12:13:46.462Z,28.73
2018-08-12T12:14:48.259Z,28.79
2018-08-12T12:15:46.376Z,28.52
2018-08-12T12:16:46.519Z,28.79
2018-08-12T12:17:47.033Z,28.69
2018-08-12T12:18:46.929Z,28.69
2018-08-12T12:19:46.505Z,28.80
2018-08-12T12:20:46.494Z,29.08
2018-08-12T12:21:46.465Z,29.63
2018-08-12T12:22:48.823Z,30.10
2018-08-12T12:23:46.610Z,30.30
2018-08-12T12:24:46.679Z,30.10
2018-08-12T12:25:47.020Z,29.76
2018-08-12T12:26:46.812Z,29.64
2018-08-12T12:27:47.355Z,29.18
2018-08-12T12:28:47.025Z,29.02
2018-08-12T12:29:46.764Z,28.82
2018-08-12T12:30:46.814Z,29.23
2018-08-12T12:31:46.818Z,29.88
2018-08-12T12:32:46.246Z,30.56
2018-08-12T12:33:47.053Z,31.04
2018-08-12T12:34:46.515Z,31.49
2018-08-12T12:35:46.576Z,31.65
2018-08-12T12:36:46.853Z,31.90
2018-08-12T12:37:46.800Z,32.36
2018-08-12T12:38:47.452Z,32.76
2018-08-12T12:39:46.934Z,32.21
2018-08-12T12:40:47.049Z,32.93
2018-08-12T12:41:47.019Z,32.99
2018-08-12T12:42:47.092Z,32.25
2018-08-12T12:43:46.797Z,32.12
2018-08-12T12:44:47.078Z,32.35
2018-08-12T12:45:46.355Z,32.73
2018-08-12T12:46:47.343Z,33.70
2018-08-12T12:47:47.061Z,33.92
2018-08-12T12:48:47.062Z,34.30
2018-08-12T12:49:46.986Z,34.19
2018-08-12T12:50:47.338Z,34.45
2018-08-12T12:51:46.931Z,34.60
2018-08-12T12:52:46.873Z,33.81
2018-08-12T12:53:46.865Z,34.03
2018-08-12T12:54:46.952Z,34.49
2018-08-12T12:55:46.609Z,35.73
2018-08-12T12:56:47.011Z,34.95
2018-08-12T12:57:46.935Z,35.31
2018-08-12T12:58:47.400Z,34.99
2018-08-12T12:59:46.751Z,35.74
2018-08-12T13:00:47.383Z,36.55
2018-08-12T13:01:47.080Z,35.34
2018-08-12T13:02:47.563Z,33.77
2018-08-12T13:03:47.012Z,33.79
2018-08-12T13:04:47.125Z,35.15
2018-08-12T13:05:47.060Z,35.78
2018-08-12T13:06:46.999Z,36.08
2018-08-12T13:07:46.999Z,36.40
2018-08-12T13:08:47.238Z,37.40
2018-08-12T13:09:47.297Z,38.14
2018-08-12T13:10:47.372Z,36.71
2018-08-12T13:11:47.537Z,35.69
2018-08-12T13:12:47.061Z,36.31
2018-08-12T13:13:47.386Z,35.85
2018-08-12T13:14:47.759Z,36.08
2018-08-12T13:15:48.657Z,36.31
2018-08-12T13:16:47.376Z,36.05
2018-08-12T13:17:49.604Z,37.30
2018-08-12T13:18:47.508Z,37.81
2018-08-12T13:19:47.333Z,37.70
2018-08-12T13:20:47.294Z,38.02
2018-08-12T13:21:47.509Z,38.21
2018-08-12T13:22:47.505Z,38.59
2018-08-12T13:23:47.605Z,38.02
2018-08-12T13:24:47.561Z,38.31
2018-08-12T13:25:47.608Z,38.19
2018-08-12T13:26:47.281Z,38.09
2018-08-12T13:27:47.357Z,38.41
2018-08-12T13:28:47.397Z,39.24
2018-08-12T13:29:47.326Z,38.55
2018-08-12T13:30:48.095Z,37.82
2018-08-12T13:31:47.508Z,37.65
2018-08-12T13:32:47.563Z,39.09
2018-08-12T13:33:47.565Z,38.24
2018-08-12T13:34:47.077Z,38.49
2018-08-12T13:35:47.450Z,37.88
2018-08-12T13:36:47.542Z,38.86
2018-08-12T13:37:48.839Z,38.44
2018-08-12T13:38:47.419Z,39.22
2018-08-12T13:39:47.760Z,39.80
2018-08-12T13:40:47.326Z,39.50
2018-08-12T13:41:47.663Z,40.34
2018-08-12T13:42:48.308Z,41.07
2018-08-12T13:43:47.586Z,41.33
2018-08-12T13:44:48.063Z,39.62
2018-08-12T13:45:48.026Z,39.50
2018-08-12T13:46:47.840Z,40.13
2018-08-12T13:47:48.029Z,39.01
2018-08-12T13:48:48.378Z,38.38
2018-08-12T13:49:48.376Z,39.50
2018-08-12T13:50:48.072Z,40.26
2018-08-12T13:51:48.696Z,39.85
2018-08-12T13:52:47.833Z,39.28
2018-08-12T13:53:47.853Z,39.66
2018-08-12T13:54:47.880Z,40.51
2018-08-12T13:55:47.838Z,39.38
2018-08-12T13:56:48.356Z,38.77
2018-08-12T13:57:47.884Z,39.59
2018-08-12T13:58:48.068Z,39.82
2018-08-12T13:59:48.074Z,40.31
2018-08-12T14:00:48.080Z,40.31
2018-08-12T14:01:47.969Z,39.68
2018-08-12T14:02:48.385Z,39.14
2018-08-12T14:03:48.158Z,39.87